Saint Charles, Maryland
Current Conditions -  °F | °C
As of 9:58 PM on Saturday 25 Oct 2014 (Local Time) from KDAA Reporting Station
Clear Clear  
Wind Chill: 51°   Ceiling: Unl
Heat Index: 51°   Visibility: 10mi
Dew Point: 47°   Wind: 1mph
Humidity: 85%   Direction: 330°NNW
Pressure: 29.75"   Gusts: NA
Location:  38.6305°N, 76.9735°W
Report Text: KDAA 260158Z AUTO 33001KT 10SM CLR 11/08 A2975 RMK AO2 SLP078 T01070082
Loading
Personal Weather Stations






























Interactive Weather Map
Tropical Storm Tracking
New forecast layout! Learn more

10-Day Weather Forecast

Advertisements
Track Severe Weather on mobile